sensor_id;sensor_type;location;lat;lon;timestamp;temperature;humidity
47805;DHT22;33568;45.286;9.900;2023-02-28T00:00:35;7.90;72.30
47805;DHT22;33568;45.286;9.900;2023-02-28T00:03:02;7.90;72.30
47805;DHT22;33568;45.286;9.900;2023-02-28T00:05:29;7.90;72.30
47805;DHT22;33568;45.286;9.900;2023-02-28T00:07:55;7.90;72.40
47805;DHT22;33568;45.286;9.900;2023-02-28T00:10:25;7.80;72.40
47805;DHT22;33568;45.286;9.900;2023-02-28T00:12:54;7.90;72.70
47805;DHT22;33568;45.286;9.900;2023-02-28T00:15:23;7.80;72.70
47805;DHT22;33568;45.286;9.900;2023-02-28T00:17:50;7.80;72.70
47805;DHT22;33568;45.286;9.900;2023-02-28T00:20:17;7.80;72.80
47805;DHT22;33568;45.286;9.900;2023-02-28T00:22:48;7.80;72.80
47805;DHT22;33568;45.286;9.900;2023-02-28T00:25:17;7.80;73.00
47805;DHT22;33568;45.286;9.900;2023-02-28T00:27:44;7.70;73.10
47805;DHT22;33568;45.286;9.900;2023-02-28T00:30:14;7.70;73.30
47805;DHT22;33568;45.286;9.900;2023-02-28T00:32:42;7.70;73.40
47805;DHT22;33568;45.286;9.900;2023-02-28T00:35:09;7.70;73.50
47805;DHT22;33568;45.286;9.900;2023-02-28T00:37:35;7.60;74.10
47805;DHT22;33568;45.286;9.900;2023-02-28T00:40:02;7.60;73.70
47805;DHT22;33568;45.286;9.900;2023-02-28T00:42:31;7.60;74.50
47805;DHT22;33568;45.286;9.900;2023-02-28T00:44:57;7.60;73.70
47805;DHT22;33568;45.286;9.900;2023-02-28T00:47:23;7.70;73.70
47805;DHT22;33568;45.286;9.900;2023-02-28T00:49:50;7.70;73.70
47805;DHT22;33568;45.286;9.900;2023-02-28T00:52:16;7.60;73.80
47805;DHT22;33568;45.286;9.900;2023-02-28T00:54:42;7.70;74.10
47805;DHT22;33568;45.286;9.900;2023-02-28T00:57:09;7.70;74.00
47805;DHT22;33568;45.286;9.900;2023-02-28T00:59:35;7.70;74.00
47805;DHT22;33568;45.286;9.900;2023-02-28T01:02:02;7.70;74.10
47805;DHT22;33568;45.286;9.900;2023-02-28T01:04:28;7.60;74.10
47805;DHT22;33568;45.286;9.900;2023-02-28T01:06:54;7.60;74.10
47805;DHT22;33568;45.286;9.900;2023-02-28T01:09:21;7.60;74.70
47805;DHT22;33568;45.286;9.900;2023-02-28T01:11:47;7.60;74.30
47805;DHT22;33568;45.286;9.900;2023-02-28T01:14:15;7.60;74.20
47805;DHT22;33568;45.286;9.900;2023-02-28T01:16:42;7.60;74.20
47805;DHT22;33568;45.286;9.900;2023-02-28T01:19:08;7.50;74.40
47805;DHT22;33568;45.286;9.900;2023-02-28T01:21:35;7.50;74.80
47805;DHT22;33568;45.286;9.900;2023-02-28T01:24:02;7.50;74.70
47805;DHT22;33568;45.286;9.900;2023-02-28T01:26:29;7.50;74.70
47805;DHT22;33568;45.286;9.900;2023-02-28T01:28:55;7.60;74.70
47805;DHT22;33568;45.286;9.900;2023-02-28T01:31:23;7.50;75.10
47805;DHT22;33568;45.286;9.900;2023-02-28T01:33:50;7.50;74.70
47805;DHT22;33568;45.286;9.900;2023-02-28T01:36:17;7.50;74.60
47805;DHT22;33568;45.286;9.900;2023-02-28T01:38:44;7.50;75.30
47805;DHT22;33568;45.286;9.900;2023-02-28T01:41:17;7.50;75.40
47805;DHT22;33568;45.286;9.900;2023-02-28T01:46:13;7.40;74.80
47805;DHT22;33568;45.286;9.900;2023-02-28T01:48:50;7.40;74.90
47805;DHT22;33568;45.286;9.900;2023-02-28T01:51:28;7.40;75.00
47805;DHT22;33568;45.286;9.900;2023-02-28T01:53:59;7.40;75.20
47805;DHT22;33568;45.286;9.900;2023-02-28T01:56:30;7.40;75.10
47805;DHT22;33568;45.286;9.900;2023-02-28T01:58:59;7.40;75.00
47805;DHT22;33568;45.286;9.900;2023-02-28T02:01:27;7.40;75.00
47805;DHT22;33568;45.286;9.900;2023-02-28T02:04:00;7.40;75.00
47805;DHT22;33568;45.286;9.900;2023-02-28T02:06:45;7.40;75.00
47805;DHT22;33568;45.286;9.900;2023-02-28T02:09:13;7.40;74.80
47805;DHT22;33568;45.286;9.900;2023-02-28T02:11:42;7.40;74.80
47805;DHT22;33568;45.286;9.900;2023-02-28T02:34:09;7.30;74.90
47805;DHT22;33568;45.286;9.900;2023-02-28T02:45:04;7.20;74.80
47805;DHT22;33568;45.286;9.900;2023-02-28T02:47:33;7.20;74.70
47805;DHT22;33568;45.286;9.900;2023-02-28T02:50:07;7.20;74.80
47805;DHT22;33568;45.286;9.900;2023-02-28T02:52:39;7.20;74.70
47805;DHT22;33568;45.286;9.900;2023-02-28T02:55:08;7.20;74.70
47805;DHT22;33568;45.286;9.900;2023-02-28T02:57:46;7.20;74.70
47805;DHT22;33568;45.286;9.900;2023-02-28T03:00:16;7.20;74.60
47805;DHT22;33568;45.286;9.900;2023-02-28T03:02:47;7.20;74.60
47805;DHT22;33568;45.286;9.900;2023-02-28T03:05:54;7.20;74.50
47805;DHT22;33568;45.286;9.900;2023-02-28T03:08:22;7.10;74.60
47805;DHT22;33568;45.286;9.900;2023-02-28T03:11:00;7.10;74.50
47805;DHT22;33568;45.286;9.900;2023-02-28T03:16:56;7.10;74.20
47805;DHT22;33568;45.286;9.900;2023-02-28T03:25:21;7.10;74.00
47805;DHT22;33568;45.286;9.900;2023-02-28T03:34:19;7.10;73.80
47805;DHT22;33568;45.286;9.900;2023-02-28T03:36:53;7.10;73.70
47805;DHT22;33568;45.286;9.900;2023-02-28T03:39:36;7.10;73.70
47805;DHT22;33568;45.286;9.900;2023-02-28T03:42:08;7.10;73.50
47805;DHT22;33568;45.286;9.900;2023-02-28T03:47:25;7.10;73.70
47805;DHT22;33568;45.286;9.900;2023-02-28T03:50:07;7.10;73.60
47805;DHT22;33568;45.286;9.900;2023-02-28T03:52:44;7.10;73.50
47805;DHT22;33568;45.286;9.900;2023-02-28T03:55:13;7.00;73.70
47805;DHT22;33568;45.286;9.900;2023-02-28T03:58:05;7.00;73.70
47805;DHT22;33568;45.286;9.900;2023-02-28T04:00:38;7.00;73.50
47805;DHT22;33568;45.286;9.900;2023-02-28T04:03:06;7.00;73.20
47805;DHT22;33568;45.286;9.900;2023-02-28T04:05:33;6.90;73.20
47805;DHT22;33568;45.286;9.900;2023-02-28T04:08:10;6.90;73.10
47805;DHT22;33568;45.286;9.900;2023-02-28T04:10:37;6.90;73.00
47805;DHT22;33568;45.286;9.900;2023-02-28T04:13:03;6.90;72.70
47805;DHT22;33568;45.286;9.900;2023-02-28T04:15:30;6.90;72.50
47805;DHT22;33568;45.286;9.900;2023-02-28T04:18:15;6.90;72.10
47805;DHT22;33568;45.286;9.900;2023-02-28T04:23:26;7.00;71.80
47805;DHT22;33568;45.286;9.900;2023-02-28T04:25:55;7.00;72.00
47805;DHT22;33568;45.286;9.900;2023-02-28T04:28:40;7.10;71.90
47805;DHT22;33568;45.286;9.900;2023-02-28T04:31:06;7.00;71.70
47805;DHT22;33568;45.286;9.900;2023-02-28T04:33:33;7.00;71.90
47805;DHT22;33568;45.286;9.900;2023-02-28T04:36:01;6.90;72.00
47805;DHT22;33568;45.286;9.900;2023-02-28T04:38:47;6.80;72.30
47805;DHT22;33568;45.286;9.900;2023-02-28T04:41:14;6.70;73.00
47805;DHT22;33568;45.286;9.900;2023-02-28T04:43:40;6.70;72.90
47805;DHT22;33568;45.286;9.900;2023-02-28T04:46:25;6.70;72.70
47805;DHT22;33568;45.286;9.900;2023-02-28T04:48:51;6.70;72.80
47805;DHT22;33568;45.286;9.900;2023-02-28T04:51:18;6.70;72.90
47805;DHT22;33568;45.286;9.900;2023-02-28T04:53:46;6.70;72.80
47805;DHT22;33568;45.286;9.900;2023-02-28T04:56:14;6.70;72.90
47805;DHT22;33568;45.286;9.900;2023-02-28T04:58:41;6.70;72.70
47805;DHT22;33568;45.286;9.900;2023-02-28T05:01:26;6.70;72.60
47805;DHT22;33568;45.286;9.900;2023-02-28T05:03:55;6.70;72.70
47805;DHT22;33568;45.286;9.900;2023-02-28T05:06:25;6.80;72.90
47805;DHT22;33568;45.286;9.900;2023-02-28T05:08:52;6.70;72.50
47805;DHT22;33568;45.286;9.900;2023-02-28T05:11:24;6.70;72.60
47805;DHT22;33568;45.286;9.900;2023-02-28T05:13:52;6.60;72.80
47805;DHT22;33568;45.286;9.900;2023-02-28T05:16:19;6.50;73.00
47805;DHT22;33568;45.286;9.900;2023-02-28T05:18:46;6.50;73.20
47805;DHT22;33568;45.286;9.900;2023-02-28T05:21:33;6.50;73.40
47805;DHT22;33568;45.286;9.900;2023-02-28T05:24:02;6.50;73.40
47805;DHT22;33568;45.286;9.900;2023-02-28T05:26:29;6.40;74.00
47805;DHT22;33568;45.286;9.900;2023-02-28T05:28:56;6.40;74.50
47805;DHT22;33568;45.286;9.900;2023-02-28T05:31:59;6.30;75.00
47805;DHT22;33568;45.286;9.900;2023-02-28T05:34:25;6.30;75.80
47805;DHT22;33568;45.286;9.900;2023-02-28T05:36:52;6.20;76.50
47805;DHT22;33568;45.286;9.900;2023-02-28T05:42:03;6.10;78.20
47805;DHT22;33568;45.286;9.900;2023-02-28T05:44:29;6.00;79.40
47805;DHT22;33568;45.286;9.900;2023-02-28T05:46:56;5.90;83.10
47805;DHT22;33568;45.286;9.900;2023-02-28T05:49:41;5.90;80.90
47805;DHT22;33568;45.286;9.900;2023-02-28T05:52:27;5.90;81.50
47805;DHT22;33568;45.286;9.900;2023-02-28T05:54:53;5.90;82.00
47805;DHT22;33568;45.286;9.900;2023-02-28T05:57:20;5.90;82.60
47805;DHT22;33568;45.286;9.900;2023-02-28T05:59:46;5.90;83.20
47805;DHT22;33568;45.286;9.900;2023-02-28T06:02:14;5.90;83.40
47805;DHT22;33568;45.286;9.900;2023-02-28T06:07:27;5.90;84.20
47805;DHT22;33568;45.286;9.900;2023-02-28T06:09:53;5.90;84.80
47805;DHT22;33568;45.286;9.900;2023-02-28T06:12:20;5.90;85.00
47805;DHT22;33568;45.286;9.900;2023-02-28T06:14:46;5.90;85.10
47805;DHT22;33568;45.286;9.900;2023-02-28T06:17:12;6.00;85.30
47805;DHT22;33568;45.286;9.900;2023-02-28T06:22:24;5.90;85.90
47805;DHT22;33568;45.286;9.900;2023-02-28T06:24:50;5.90;86.10
47805;DHT22;33568;45.286;9.900;2023-02-28T06:27:17;5.90;86.20
47805;DHT22;33568;45.286;9.900;2023-02-28T06:29:43;5.90;86.40
47805;DHT22;33568;45.286;9.900;2023-02-28T06:32:09;5.80;87.00
47805;DHT22;33568;45.286;9.900;2023-02-28T06:34:36;5.80;87.50
47805;DHT22;33568;45.286;9.900;2023-02-28T06:37:02;5.80;87.70
47805;DHT22;33568;45.286;9.900;2023-02-28T06:39:30;5.90;87.90
47805;DHT22;33568;45.286;9.900;2023-02-28T06:41:57;6.00;87.80
47805;DHT22;33568;45.286;9.900;2023-02-28T06:44:23;6.10;87.60
47805;DHT22;33568;45.286;9.900;2023-02-28T06:46:50;6.20;87.70
47805;DHT22;33568;45.286;9.900;2023-02-28T06:49:35;6.30;87.80
47805;DHT22;33568;45.286;9.900;2023-02-28T06:52:02;6.30;88.40
47805;DHT22;33568;45.286;9.900;2023-02-28T06:57:29;6.50;88.90
47805;DHT22;33568;45.286;9.900;2023-02-28T07:02:44;6.60;87.10
47805;DHT22;33568;45.286;9.900;2023-02-28T07:05:11;6.60;87.10
47805;DHT22;33568;45.286;9.900;2023-02-28T07:07:37;6.60;87.20
47805;DHT22;33568;45.286;9.900;2023-02-28T07:10:25;6.60;87.50
47805;DHT22;33568;45.286;9.900;2023-02-28T07:12:51;6.50;87.60
47805;DHT22;33568;45.286;9.900;2023-02-28T07:15:17;6.60;87.80
47805;DHT22;33568;45.286;9.900;2023-02-28T07:18:02;6.60;87.70
47805;DHT22;33568;45.286;9.900;2023-02-28T07:20:31;6.60;87.80
47805;DHT22;33568;45.286;9.900;2023-02-28T07:22:57;6.80;87.80
47805;DHT22;33568;45.286;9.900;2023-02-28T07:25:25;6.80;87.50
47805;DHT22;33568;45.286;9.900;2023-02-28T07:28:11;7.00;87.40
47805;DHT22;33568;45.286;9.900;2023-02-28T07:30:56;7.10;86.80
47805;DHT22;33568;45.286;9.900;2023-02-28T07:33:22;7.00;87.10
47805;DHT22;33568;45.286;9.900;2023-02-28T07:35:49;6.90;88.30
47805;DHT22;33568;45.286;9.900;2023-02-28T07:38:16;7.10;87.40
47805;DHT22;33568;45.286;9.900;2023-02-28T07:40:42;7.00;87.80
47805;DHT22;33568;45.286;9.900;2023-02-28T07:43:09;7.00;87.10
47805;DHT22;33568;45.286;9.900;2023-02-28T07:45:35;7.10;86.70
47805;DHT22;33568;45.286;9.900;2023-02-28T07:48:02;7.20;86.60
47805;DHT22;33568;45.286;9.900;2023-02-28T07:50:57;7.30;86.60
47805;DHT22;33568;45.286;9.900;2023-02-28T07:53:24;7.40;86.50
47805;DHT22;33568;45.286;9.900;2023-02-28T07:55:50;7.50;86.80
47805;DHT22;33568;45.286;9.900;2023-02-28T07:58:17;7.60;85.80
47805;DHT22;33568;45.286;9.900;2023-02-28T08:00:43;7.60;85.70
47805;DHT22;33568;45.286;9.900;2023-02-28T08:03:12;7.70;85.40
47805;DHT22;33568;45.286;9.900;2023-02-28T08:05:42;7.70;84.70
47805;DHT22;33568;45.286;9.900;2023-02-28T08:08:08;7.70;84.50
47805;DHT22;33568;45.286;9.900;2023-02-28T08:10:35;7.90;84.30
47805;DHT22;33568;45.286;9.900;2023-02-28T08:13:02;7.90;84.10
47805;DHT22;33568;45.286;9.900;2023-02-28T08:15:28;8.00;84.00
47805;DHT22;33568;45.286;9.900;2023-02-28T08:17:55;8.10;83.60
47805;DHT22;33568;45.286;9.900;2023-02-28T08:20:25;8.20;83.00
47805;DHT22;33568;45.286;9.900;2023-02-28T08:22:51;8.30;82.30
47805;DHT22;33568;45.286;9.900;2023-02-28T08:25:18;8.40;81.90
47805;DHT22;33568;45.286;9.900;2023-02-28T08:27:46;8.60;81.60
47805;DHT22;33568;45.286;9.900;2023-02-28T08:30:14;8.60;81.20
47805;DHT22;33568;45.286;9.900;2023-02-28T08:32:40;8.70;81.00
47805;DHT22;33568;45.286;9.900;2023-02-28T08:35:07;8.70;80.60
47805;DHT22;33568;45.286;9.900;2023-02-28T08:37:54;8.80;79.90
47805;DHT22;33568;45.286;9.900;2023-02-28T08:40:20;8.80;78.80
47805;DHT22;33568;45.286;9.900;2023-02-28T08:42:47;8.80;79.50
47805;DHT22;33568;45.286;9.900;2023-02-28T08:45:14;8.90;79.30
47805;DHT22;33568;45.286;9.900;2023-02-28T08:47:41;9.00;78.00
47805;DHT22;33568;45.286;9.900;2023-02-28T08:50:07;9.00;77.40
47805;DHT22;33568;45.286;9.900;2023-02-28T08:52:34;8.90;74.80
47805;DHT22;33568;45.286;9.900;2023-02-28T08:55:00;8.90;77.00
47805;DHT22;33568;45.286;9.900;2023-02-28T08:57:26;9.00;76.70
47805;DHT22;33568;45.286;9.900;2023-02-28T08:59:53;9.10;76.50
47805;DHT22;33568;45.286;9.900;2023-02-28T09:02:19;9.20;76.20
47805;DHT22;33568;45.286;9.900;2023-02-28T09:04:46;9.10;73.20
47805;DHT22;33568;45.286;9.900;2023-02-28T09:07:12;9.20;75.80
47805;DHT22;33568;45.286;9.900;2023-02-28T09:09:57;9.20;75.30
47805;DHT22;33568;45.286;9.900;2023-02-28T09:12:24;9.40;74.50
47805;DHT22;33568;45.286;9.900;2023-02-28T09:15:30;9.40;71.40
47805;DHT22;33568;45.286;9.900;2023-02-28T09:18:15;9.70;72.90
47805;DHT22;33568;45.286;9.900;2023-02-28T09:21:05;10.30;73.00
47805;DHT22;33568;45.286;9.900;2023-02-28T09:23:32;10.80;71.80
47805;DHT22;33568;45.286;9.900;2023-02-28T09:25:59;11.40;70.10
47805;DHT22;33568;45.286;9.900;2023-02-28T09:28:44;11.70;61.40
47805;DHT22;33568;45.286;9.900;2023-02-28T09:31:32;12.10;63.10
47805;DHT22;33568;45.286;9.900;2023-02-28T09:33:58;12.50;65.00
47805;DHT22;33568;45.286;9.900;2023-02-28T09:36:26;12.80;62.80
47805;DHT22;33568;45.286;9.900;2023-02-28T09:38:54;13.00;61.80
47805;DHT22;33568;45.286;9.900;2023-02-28T09:41:44;13.20;60.30
47805;DHT22;33568;45.286;9.900;2023-02-28T09:44:38;13.60;59.00
47805;DHT22;33568;45.286;9.900;2023-02-28T09:47:53;13.80;56.70
47805;DHT22;33568;45.286;9.900;2023-02-28T09:53:29;14.20;56.70
47805;DHT22;33568;45.286;9.900;2023-02-28T09:56:15;14.40;54.60
47805;DHT22;33568;45.286;9.900;2023-02-28T10:04:43;14.40;54.10
47805;DHT22;33568;45.286;9.900;2023-02-28T10:10:15;14.90;53.20
47805;DHT22;33568;45.286;9.900;2023-02-28T10:12:45;15.10;53.90
47805;DHT22;33568;45.286;9.900;2023-02-28T10:15:16;15.50;53.60
47805;DHT22;33568;45.286;9.900;2023-02-28T10:17:47;15.80;52.60
47805;DHT22;33568;45.286;9.900;2023-02-28T10:20:36;16.10;52.20
47805;DHT22;33568;45.286;9.900;2023-02-28T10:23:27;16.40;51.20
47805;DHT22;33568;45.286;9.900;2023-02-28T10:25:59;16.30;47.90
47805;DHT22;33568;45.286;9.900;2023-02-28T10:28:26;16.10;50.10
47805;DHT22;33568;45.286;9.900;2023-02-28T10:31:18;16.20;50.40
47805;DHT22;33568;45.286;9.900;2023-02-28T10:33:45;16.30;49.50
47805;DHT22;33568;45.286;9.900;2023-02-28T10:36:18;16.30;49.80
47805;DHT22;33568;45.286;9.900;2023-02-28T10:38:47;16.80;49.40
47805;DHT22;33568;45.286;9.900;2023-02-28T10:43:43;17.60;47.90
47805;DHT22;33568;45.286;9.900;2023-02-28T10:46:15;17.50;47.70
47805;DHT22;33568;45.286;9.900;2023-02-28T10:49:04;17.20;47.40
47805;DHT22;33568;45.286;9.900;2023-02-28T10:51:37;17.00;46.80
47805;DHT22;33568;45.286;9.900;2023-02-28T10:54:04;16.70;47.70
47805;DHT22;33568;45.286;9.900;2023-02-28T10:56:32;16.60;48.20
47805;DHT22;33568;45.286;9.900;2023-02-28T10:59:20;16.60;47.50
47805;DHT22;33568;45.286;9.900;2023-02-28T11:01:48;16.30;47.80
47805;DHT22;33568;45.286;9.900;2023-02-28T11:07:04;16.70;46.80
47805;DHT22;33568;45.286;9.900;2023-02-28T11:09:35;16.70;46.30
47805;DHT22;33568;45.286;9.900;2023-02-28T11:12:07;16.90;46.70
47805;DHT22;33568;45.286;9.900;2023-02-28T11:14:40;17.10;46.60
47805;DHT22;33568;45.286;9.900;2023-02-28T11:17:19;17.60;46.30
47805;DHT22;33568;45.286;9.900;2023-02-28T11:19:49;17.80;45.30
47805;DHT22;33568;45.286;9.900;2023-02-28T11:22:23;17.60;45.50
47805;DHT22;33568;45.286;9.900;2023-02-28T11:25:13;16.80;45.40
47805;DHT22;33568;45.286;9.900;2023-02-28T11:27:50;16.30;45.00
47805;DHT22;33568;45.286;9.900;2023-02-28T11:30:33;16.30;45.70
47805;DHT22;33568;45.286;9.900;2023-02-28T11:33:14;16.70;44.90
47805;DHT22;33568;45.286;9.900;2023-02-28T11:35:45;17.10;45.30
47805;DHT22;33568;45.286;9.900;2023-02-28T11:38:31;16.80;44.90
47805;DHT22;33568;45.286;9.900;2023-02-28T11:44:09;16.40;45.10
47805;DHT22;33568;45.286;9.900;2023-02-28T11:52:50;18.60;42.30
47805;DHT22;33568;45.286;9.900;2023-02-28T11:55:27;18.60;43.90
47805;DHT22;33568;45.286;9.900;2023-02-28T12:06:15;18.30;42.80
47805;DHT22;33568;45.286;9.900;2023-02-28T12:09:02;18.20;44.10
47805;DHT22;33568;45.286;9.900;2023-02-28T12:20:00;19.10;43.70
47805;DHT22;33568;45.286;9.900;2023-02-28T12:22:51;19.40;42.60
47805;DHT22;33568;45.286;9.900;2023-02-28T12:25:42;19.80;43.80
47805;DHT22;33568;45.286;9.900;2023-02-28T12:28:13;19.90;42.20
47805;DHT22;33568;45.286;9.900;2023-02-28T12:30:53;19.80;40.80
47805;DHT22;33568;45.286;9.900;2023-02-28T12:33:24;19.60;42.50
47805;DHT22;33568;45.286;9.900;2023-02-28T12:35:56;19.30;42.60
47805;DHT22;33568;45.286;9.900;2023-02-28T12:38:33;18.90;43.30
47805;DHT22;33568;45.286;9.900;2023-02-28T12:41:03;18.90;42.10
47805;DHT22;33568;45.286;9.900;2023-02-28T12:43:37;18.80;42.10
47805;DHT22;33568;45.286;9.900;2023-02-28T12:46:23;18.90;42.00
47805;DHT22;33568;45.286;9.900;2023-02-28T12:48:55;18.90;41.50
47805;DHT22;33568;45.286;9.900;2023-02-28T12:54:44;18.60;42.10
47805;DHT22;33568;45.286;9.900;2023-02-28T12:57:26;17.90;41.20
47805;DHT22;33568;45.286;9.900;2023-02-28T12:59:59;17.20;42.80
47805;DHT22;33568;45.286;9.900;2023-02-28T13:09:08;15.60;44.10
47805;DHT22;33568;45.286;9.900;2023-02-28T13:11:50;15.20;44.80
47805;DHT22;33568;45.286;9.900;2023-02-28T13:17:12;14.90;45.50
47805;DHT22;33568;45.286;9.900;2023-02-28T13:19:55;14.60;45.90
47805;DHT22;33568;45.286;9.900;2023-02-28T13:31:20;14.00;47.00
47805;DHT22;33568;45.286;9.900;2023-02-28T13:34:23;14.00;47.00
47805;DHT22;33568;45.286;9.900;2023-02-28T13:36:49;13.80;47.10
47805;DHT22;33568;45.286;9.900;2023-02-28T13:45:29;13.60;47.40
47805;DHT22;33568;45.286;9.900;2023-02-28T13:48:24;13.50;47.60
47805;DHT22;33568;45.286;9.900;2023-02-28T13:50:52;13.40;47.60
47805;DHT22;33568;45.286;9.900;2023-02-28T13:53:59;13.40;48.00
47805;DHT22;33568;45.286;9.900;2023-02-28T13:56:25;13.40;48.10
47805;DHT22;33568;45.286;9.900;2023-02-28T13:59:16;13.40;48.30
47805;DHT22;33568;45.286;9.900;2023-02-28T14:05:01;13.40;48.70
47805;DHT22;33568;45.286;9.900;2023-02-28T14:07:49;13.30;48.50
47805;DHT22;33568;45.286;9.900;2023-02-28T14:11:06;13.20;49.00
47805;DHT22;33568;45.286;9.900;2023-02-28T14:13:40;13.20;49.20
47805;DHT22;33568;45.286;9.900;2023-02-28T14:16:34;13.20;49.40
47805;DHT22;33568;45.286;9.900;2023-02-28T14:19:25;13.20;49.40
47805;DHT22;33568;45.286;9.900;2023-02-28T14:22:02;13.10;49.40
47805;DHT22;33568;45.286;9.900;2023-02-28T14:27:49;13.20;49.20
47805;DHT22;33568;45.286;9.900;2023-02-28T14:36:32;13.10;49.70
47805;DHT22;33568;45.286;9.900;2023-02-28T14:39:26;13.10;49.10
47805;DHT22;33568;45.286;9.900;2023-02-28T14:41:53;13.00;49.70
47805;DHT22;33568;45.286;9.900;2023-02-28T14:44:26;13.10;49.90
47805;DHT22;33568;45.286;9.900;2023-02-28T14:46:55;13.00;49.90
47805;DHT22;33568;45.286;9.900;2023-02-28T14:49:29;12.90;50.10
47805;DHT22;33568;45.286;9.900;2023-02-28T14:52:19;12.70;50.10
47805;DHT22;33568;45.286;9.900;2023-02-28T14:54:51;12.40;50.50
47805;DHT22;33568;45.286;9.900;2023-02-28T15:00:23;12.40;51.40
47805;DHT22;33568;45.286;9.900;2023-02-28T15:02:50;12.40;51.40
47805;DHT22;33568;45.286;9.900;2023-02-28T15:05:36;12.30;51.60
47805;DHT22;33568;45.286;9.900;2023-02-28T15:10:32;12.40;51.60
47805;DHT22;33568;45.286;9.900;2023-02-28T15:16:08;12.40;51.60
47805;DHT22;33568;45.286;9.900;2023-02-28T15:18:47;12.50;51.40
47805;DHT22;33568;45.286;9.900;2023-02-28T15:24:22;12.50;51.50
47805;DHT22;33568;45.286;9.900;2023-02-28T15:26:55;12.30;51.90
47805;DHT22;33568;45.286;9.900;2023-02-28T15:29:25;12.10;52.00
47805;DHT22;33568;45.286;9.900;2023-02-28T15:32:00;12.10;52.20
47805;DHT22;33568;45.286;9.900;2023-02-28T15:34:41;12.10;52.10
47805;DHT22;33568;45.286;9.900;2023-02-28T15:37:33;12.10;52.00
47805;DHT22;33568;45.286;9.900;2023-02-28T15:45:44;12.20;51.70
47805;DHT22;33568;45.286;9.900;2023-02-28T15:48:31;12.10;52.20
47805;DHT22;33568;45.286;9.900;2023-02-28T15:51:23;12.00;52.30
47805;DHT22;33568;45.286;9.900;2023-02-28T15:57:57;12.00;52.50
47805;DHT22;33568;45.286;9.900;2023-02-28T16:00:29;12.00;52.70
47805;DHT22;33568;45.286;9.900;2023-02-28T16:02:55;11.90;52.90
47805;DHT22;33568;45.286;9.900;2023-02-28T16:05:30;11.80;53.20
47805;DHT22;33568;45.286;9.900;2023-02-28T16:08:13;11.70;53.40
47805;DHT22;33568;45.286;9.900;2023-02-28T16:10:40;11.60;53.70
47805;DHT22;33568;45.286;9.900;2023-02-28T16:13:08;11.60;54.00
47805;DHT22;33568;45.286;9.900;2023-02-28T16:15:56;11.60;54.50
47805;DHT22;33568;45.286;9.900;2023-02-28T16:21:45;11.40;54.60
47805;DHT22;33568;45.286;9.900;2023-02-28T16:24:12;11.40;54.50
47805;DHT22;33568;45.286;9.900;2023-02-28T16:29:42;11.20;55.80
47805;DHT22;33568;45.286;9.900;2023-02-28T16:32:10;11.20;55.70
47805;DHT22;33568;45.286;9.900;2023-02-28T16:34:38;11.10;56.70
47805;DHT22;33568;45.286;9.900;2023-02-28T16:37:13;11.10;56.00
47805;DHT22;33568;45.286;9.900;2023-02-28T16:39:41;11.10;56.10
47805;DHT22;33568;45.286;9.900;2023-02-28T16:42:14;11.00;56.20
47805;DHT22;33568;45.286;9.900;2023-02-28T16:44:42;11.00;56.90
47805;DHT22;33568;45.286;9.900;2023-02-28T16:47:09;11.00;56.40
47805;DHT22;33568;45.286;9.900;2023-02-28T16:49:36;11.00;56.50
47805;DHT22;33568;45.286;9.900;2023-02-28T16:52:02;10.90;56.50
47805;DHT22;33568;45.286;9.900;2023-02-28T16:54:47;11.00;56.60
47805;DHT22;33568;45.286;9.900;2023-02-28T16:57:19;11.00;56.50
47805;DHT22;33568;45.286;9.900;2023-02-28T16:59:48;11.00;56.60
47805;DHT22;33568;45.286;9.900;2023-02-28T17:02:18;10.90;56.70
47805;DHT22;33568;45.286;9.900;2023-02-28T17:04:45;10.90;57.20
47805;DHT22;33568;45.286;9.900;2023-02-28T17:07:14;10.90;57.00
47805;DHT22;33568;45.286;9.900;2023-02-28T17:09:43;10.80;57.00
47805;DHT22;33568;45.286;9.900;2023-02-28T17:12:28;10.70;57.30
47805;DHT22;33568;45.286;9.900;2023-02-28T17:14:55;10.70;57.50
47805;DHT22;33568;45.286;9.900;2023-02-28T17:17:21;10.70;57.70
47805;DHT22;33568;45.286;9.900;2023-02-28T17:22:53;10.70;58.10
47805;DHT22;33568;45.286;9.900;2023-02-28T17:25:38;10.60;58.40
47805;DHT22;33568;45.286;9.900;2023-02-28T17:28:04;10.60;58.70
47805;DHT22;33568;45.286;9.900;2023-02-28T17:30:49;10.50;58.80
47805;DHT22;33568;45.286;9.900;2023-02-28T17:33:16;10.40;59.00
47805;DHT22;33568;45.286;9.900;2023-02-28T17:35:42;10.30;59.40
47805;DHT22;33568;45.286;9.900;2023-02-28T17:38:18;10.30;59.80
47805;DHT22;33568;45.286;9.900;2023-02-28T17:40:45;10.20;59.90
47805;DHT22;33568;45.286;9.900;2023-02-28T17:43:11;10.20;60.00
47805;DHT22;33568;45.286;9.900;2023-02-28T17:45:38;10.20;60.20
47805;DHT22;33568;45.286;9.900;2023-02-28T17:48:04;10.10;60.20
47805;DHT22;33568;45.286;9.900;2023-02-28T17:50:31;10.00;61.20
47805;DHT22;33568;45.286;9.900;2023-02-28T17:52:58;9.90;60.40
47805;DHT22;33568;45.286;9.900;2023-02-28T17:55:24;9.90;60.60
47805;DHT22;33568;45.286;9.900;2023-02-28T17:57:50;9.80;61.70
47805;DHT22;33568;45.286;9.900;2023-02-28T18:00:35;9.80;60.70
47805;DHT22;33568;45.286;9.900;2023-02-28T18:03:01;9.70;60.70
47805;DHT22;33568;45.286;9.900;2023-02-28T18:05:28;9.70;61.00
47805;DHT22;33568;45.286;9.900;2023-02-28T18:07:54;9.70;61.10
47805;DHT22;33568;45.286;9.900;2023-02-28T18:10:21;9.70;61.30
47805;DHT22;33568;45.286;9.900;2023-02-28T18:12:49;9.70;61.50
47805;DHT22;33568;45.286;9.900;2023-02-28T18:15:17;9.70;61.60
47805;DHT22;33568;45.286;9.900;2023-02-28T18:17:46;9.70;61.80
47805;DHT22;33568;45.286;9.900;2023-02-28T18:20:32;9.60;61.90
47805;DHT22;33568;45.286;9.900;2023-02-28T18:22:58;9.60;62.10
47805;DHT22;33568;45.286;9.900;2023-02-28T18:25:25;9.60;62.20
47805;DHT22;33568;45.286;9.900;2023-02-28T18:27:51;9.50;62.20
47805;DHT22;33568;45.286;9.900;2023-02-28T18:30:31;9.50;62.50
47805;DHT22;33568;45.286;9.900;2023-02-28T18:32:59;9.40;62.70
47805;DHT22;33568;45.286;9.900;2023-02-28T18:38:18;9.40;63.00
47805;DHT22;33568;45.286;9.900;2023-02-28T18:41:01;9.40;63.20
47805;DHT22;33568;45.286;9.900;2023-02-28T18:43:29;9.30;63.50
47805;DHT22;33568;45.286;9.900;2023-02-28T18:45:56;9.20;63.60
47805;DHT22;33568;45.286;9.900;2023-02-28T18:48:22;9.10;63.70
47805;DHT22;33568;45.286;9.900;2023-02-28T18:50:49;9.00;64.70
47805;DHT22;33568;45.286;9.900;2023-02-28T18:53:16;8.90;64.20
47805;DHT22;33568;45.286;9.900;2023-02-28T18:55:43;8.80;64.50
47805;DHT22;33568;45.286;9.900;2023-02-28T18:58:10;8.70;65.10
47805;DHT22;33568;45.286;9.900;2023-02-28T19:00:36;8.70;65.30
47805;DHT22;33568;45.286;9.900;2023-02-28T19:03:03;8.60;67.30
47805;DHT22;33568;45.286;9.900;2023-02-28T19:05:29;8.70;65.80
47805;DHT22;33568;45.286;9.900;2023-02-28T19:08:00;8.60;67.40
47805;DHT22;33568;45.286;9.900;2023-02-28T19:10:27;8.70;65.60
47805;DHT22;33568;45.286;9.900;2023-02-28T19:12:53;8.70;65.50
47805;DHT22;33568;45.286;9.900;2023-02-28T19:15:20;8.70;67.10